createdAt,value
2018-07-10T00:02:42.620Z,58.11
2018-07-10T00:07:38.481Z,58.13
2018-07-10T00:10:41.338Z,58.03
2018-07-10T00:13:14.486Z,57.99
2018-07-10T00:15:47.133Z,58.50
2018-07-10T00:18:19.993Z,59.82
2018-07-10T00:20:51.605Z,60.49
2018-07-10T00:23:25.536Z,58.40
2018-07-10T00:25:58.333Z,57.83
2018-07-10T00:28:30.046Z,56.99
2018-07-10T00:31:01.877Z,56.36
2018-07-10T00:33:33.299Z,56.24
2018-07-10T00:36:06.102Z,54.77
2018-07-10T00:38:53.603Z,53.94
2018-07-10T00:41:33.630Z,53.76
2018-07-10T00:44:07.675Z,55.25
2018-07-10T00:46:41.498Z,55.28
2018-07-10T00:49:13.419Z,55.40
2018-07-10T00:51:45.947Z,56.74
2018-07-10T00:54:18.546Z,57.04
2018-07-10T00:56:50.081Z,57.37
2018-07-10T00:59:23.741Z,60.29
2018-07-10T01:01:57.902Z,61.78
2018-07-10T01:04:30.173Z,60.88
2018-07-10T01:07:01.140Z,61.87
2018-07-10T01:09:34.702Z,60.64
2018-07-10T01:12:06.200Z,60.70
2018-07-10T01:14:38.942Z,61.65
2018-07-10T01:17:10.434Z,61.92
2018-07-10T01:19:42.107Z,61.63
2018-07-10T01:22:14.256Z,62.79
2018-07-10T01:24:46.753Z,62.78
2018-07-10T01:27:19.384Z,62.90
2018-07-10T01:29:52.245Z,62.00
2018-07-10T01:32:23.808Z,61.67
2018-07-10T01:34:58.009Z,61.53
2018-07-10T01:37:29.450Z,61.13
2018-07-10T01:40:04.457Z,60.95
2018-07-10T01:42:37.469Z,61.91
2018-07-10T01:45:10.126Z,62.55
2018-07-10T01:47:45.834Z,62.24
2018-07-10T01:50:20.090Z,62.77
2018-07-10T01:52:52.777Z,62.03
2018-07-10T01:55:24.262Z,61.70
2018-07-10T01:57:58.633Z,60.16
2018-07-10T02:00:44.004Z,60.57
2018-07-10T02:03:16.387Z,58.91
2018-07-10T02:05:47.952Z,60.03
2018-07-10T02:08:21.653Z,60.56
2018-07-10T02:10:53.174Z,60.26
2018-07-10T02:13:26.771Z,59.93
2018-07-10T02:15:58.475Z,60.53
2018-07-10T02:18:30.854Z,60.97
2018-07-10T02:21:07.729Z,59.86
2018-07-10T02:23:44.588Z,59.19
2018-07-10T02:26:23.134Z,59.65
2018-07-10T02:28:56.569Z,59.86
2018-07-10T02:31:28.577Z,60.73
2018-07-10T02:34:01.572Z,59.19
2018-07-10T02:36:34.226Z,57.85
2018-07-10T02:39:07.063Z,57.94
2018-07-10T02:41:39.828Z,57.80
2018-07-10T02:44:11.281Z,58.57
2018-07-10T02:46:43.954Z,59.90
2018-07-10T02:49:22.729Z,59.44
2018-07-10T02:52:04.809Z,58.49
2018-07-10T02:54:42.450Z,62.91
2018-07-10T02:57:16.417Z,65.88
2018-07-10T02:59:48.723Z,68.29
2018-07-10T03:02:26.113Z,68.80
2018-07-10T03:05:03.563Z,66.94
2018-07-10T03:07:37.826Z,65.71
2018-07-10T03:10:10.703Z,64.23
2018-07-10T03:12:43.927Z,63.99
2018-07-10T03:15:17.943Z,63.02
2018-07-10T03:17:51.617Z,60.50
2018-07-10T03:20:23.377Z,59.56
2018-07-10T03:22:54.402Z,59.09
2018-07-10T03:25:27.749Z,57.20
2018-07-10T03:27:59.260Z,57.10
2018-07-10T03:30:31.981Z,57.64
2018-07-10T03:33:03.665Z,56.97
2018-07-10T03:35:35.379Z,58.21
2018-07-10T03:38:08.294Z,59.29
2018-07-10T03:40:40.419Z,60.06
2018-07-10T03:43:13.166Z,61.07
2018-07-10T03:45:46.207Z,60.96
2018-07-10T03:48:19.673Z,61.90
2018-07-10T03:50:53.824Z,62.78
2018-07-10T03:53:27.606Z,62.75
2018-07-10T03:55:59.493Z,64.44
2018-07-10T03:58:32.613Z,63.90
2018-07-10T04:01:03.655Z,63.75
2018-07-10T04:03:36.299Z,64.44
2018-07-10T04:06:09.550Z,63.23
2018-07-10T04:08:41.361Z,61.95
2018-07-10T04:11:15.051Z,61.01
2018-07-10T04:13:46.826Z,60.64
2018-07-10T04:16:19.133Z,58.66
2018-07-10T04:18:52.164Z,57.87
2018-07-10T04:21:28.790Z,55.84
2018-07-10T04:24:18.389Z,55.88
2018-07-10T04:27:33.085Z,55.07
2018-07-10T04:30:20.305Z,55.85
2018-07-10T04:32:51.794Z,55.67
2018-07-10T04:35:30.064Z,58.90
2018-07-10T04:38:02.129Z,54.58
2018-07-10T04:40:37.596Z,57.69
2018-07-10T04:43:18.498Z,59.00
2018-07-10T04:45:53.156Z,59.00
2018-07-10T04:49:06.725Z,58.81
2018-07-10T04:51:49.776Z,58.42
2018-07-10T04:54:36.378Z,59.83
2018-07-10T04:57:21.914Z,60.01
2018-07-10T04:59:55.161Z,59.40
2018-07-10T05:02:27.992Z,58.40
2018-07-10T05:04:59.891Z,58.85
2018-07-10T05:07:33.758Z,58.54
2018-07-10T05:10:06.547Z,57.60
2018-07-10T05:12:40.282Z,57.58
2018-07-10T05:15:14.816Z,56.51
2018-07-10T05:17:51.976Z,57.53
2018-07-10T05:20:26.925Z,57.18
2018-07-10T05:22:59.252Z,55.35
2018-07-10T05:25:31.812Z,55.47
2018-07-10T05:28:04.867Z,54.65
2018-07-10T05:30:39.277Z,53.85
2018-07-10T05:33:13.637Z,52.37
2018-07-10T05:35:46.153Z,52.29
2018-07-10T05:38:26.106Z,48.75
2018-07-10T05:41:00.426Z,49.74
2018-07-10T05:43:33.650Z,49.23
2018-07-10T05:46:06.487Z,47.16
2018-07-10T05:48:40.470Z,50.92
2018-07-10T05:51:13.642Z,53.41
2018-07-10T05:53:46.133Z,53.65
2018-07-10T05:56:17.633Z,53.33
2018-07-10T05:58:49.175Z,53.24
2018-07-10T06:01:21.902Z,55.97
2018-07-10T06:03:54.686Z,55.98
2018-07-10T06:06:28.665Z,57.56
2018-07-10T06:09:01.103Z,58.64
2018-07-10T06:11:33.975Z,60.98
2018-07-10T06:14:06.636Z,59.53
2018-07-10T06:16:42.485Z,60.27
2018-07-10T06:19:14.141Z,57.82
2018-07-10T06:21:50.845Z,58.27
2018-07-10T06:24:28.819Z,57.65
2018-07-10T06:27:04.278Z,56.05
2018-07-10T06:29:49.667Z,55.42
2018-07-10T06:32:24.297Z,53.12
2018-07-10T06:35:14.098Z,52.62
2018-07-10T06:37:48.010Z,50.87
2018-07-10T06:40:23.311Z,49.77
2018-07-10T06:43:08.938Z,49.20
2018-07-10T06:45:40.477Z,48.26
2018-07-10T06:48:15.602Z,46.84
2018-07-10T06:50:47.015Z,47.84
2018-07-10T06:53:24.259Z,48.00
2018-07-10T06:56:00.278Z,45.89
2018-07-10T06:58:35.340Z,44.92
2018-07-10T07:01:07.584Z,44.37
2018-07-10T07:03:43.019Z,41.65
2018-07-10T07:06:14.609Z,38.94
2018-07-10T07:08:47.241Z,38.23
2018-07-10T07:11:20.072Z,43.21
2018-07-10T07:13:52.512Z,43.98
2018-07-10T07:16:24.699Z,45.16
2018-07-10T07:18:56.252Z,46.76
2018-07-10T07:21:30.349Z,47.22
2018-07-10T07:24:03.299Z,45.99
2018-07-10T07:26:35.431Z,43.38
2018-07-10T07:29:06.871Z,45.02
2018-07-10T07:31:39.567Z,43.38
2018-07-10T07:34:11.170Z,42.45
2018-07-10T07:36:42.557Z,42.68
2018-07-10T07:39:15.003Z,41.42
2018-07-10T07:41:46.858Z,39.80
2018-07-10T07:44:19.536Z,39.74
2018-07-10T07:46:52.203Z,38.25
2018-07-10T07:49:24.876Z,38.28
2018-07-10T07:51:58.026Z,37.72
2018-07-10T07:54:30.271Z,31.90
2018-07-10T07:57:03.496Z,31.91
2018-07-10T07:59:35.246Z,31.34
2018-07-10T08:02:09.450Z,30.36
2018-07-10T08:04:41.127Z,33.50
2018-07-10T08:07:13.941Z,36.32
2018-07-10T08:09:46.883Z,32.62
2018-07-10T08:12:20.183Z,33.68
2018-07-10T08:14:55.084Z,32.82
2018-07-10T08:17:28.282Z,32.69
2018-07-10T08:20:01.089Z,32.74
2018-07-10T08:22:34.106Z,32.01
2018-07-10T08:25:07.462Z,35.05
2018-07-10T08:27:39.686Z,34.64
2018-07-10T08:30:12.447Z,34.36
2018-07-10T08:32:45.141Z,33.76
2018-07-10T08:35:20.466Z,34.33
2018-07-10T08:37:54.055Z,32.71
2018-07-10T08:40:26.789Z,29.73
2018-07-10T08:42:59.337Z,30.64
2018-07-10T08:45:30.763Z,31.40
2018-07-10T08:48:04.512Z,31.80
2018-07-10T08:50:37.368Z,29.20
2018-07-10T08:53:09.968Z,29.14
2018-07-10T08:55:42.814Z,27.79
2018-07-10T08:58:14.424Z,29.99
2018-07-10T09:00:48.413Z,31.65
2018-07-10T09:03:21.190Z,32.08
2018-07-10T09:05:54.026Z,30.19
2018-07-10T09:08:25.586Z,29.10
2018-07-10T09:10:58.588Z,27.54
2018-07-10T09:13:31.338Z,27.51
2018-07-10T09:16:04.185Z,27.19
2018-07-10T09:18:36.294Z,27.82
2018-07-10T09:21:08.000Z,29.76
2018-07-10T09:23:41.625Z,26.67
2018-07-10T09:26:14.695Z,32.30
2018-07-10T09:28:47.336Z,31.20
2018-07-10T09:31:19.057Z,27.14
2018-07-10T09:33:51.957Z,28.32
2018-07-10T09:36:24.500Z,29.41
2018-07-10T09:38:56.390Z,28.86
2018-07-10T09:41:30.538Z,28.72
2018-07-10T09:44:03.566Z,28.68
2018-07-10T09:46:36.642Z,30.49
2018-07-10T09:49:08.154Z,29.73
2018-07-10T09:51:42.337Z,29.10
2018-07-10T09:54:15.090Z,30.53
2018-07-10T09:56:48.905Z,29.07
2018-07-10T09:59:21.680Z,31.07
2018-07-10T10:02:00.265Z,27.99
2018-07-10T10:04:33.440Z,27.45
2018-07-10T10:07:05.038Z,25.54
2018-07-10T10:09:38.965Z,25.72
2018-07-10T10:12:11.470Z,27.09
2018-07-10T10:14:45.255Z,27.40
2018-07-10T10:17:18.587Z,28.01
2018-07-10T10:19:52.634Z,27.36
2018-07-10T10:22:24.689Z,25.76
2018-07-10T10:24:57.636Z,26.20
2018-07-10T10:27:31.231Z,26.44
2018-07-10T10:30:04.848Z,25.33
2018-07-10T10:32:37.675Z,25.30
2018-07-10T10:35:10.309Z,25.75
2018-07-10T10:37:42.927Z,26.95
2018-07-10T10:40:18.299Z,25.42
2018-07-10T10:42:51.277Z,28.39
2018-07-10T10:45:24.317Z,28.70
2018-07-10T10:51:24.057Z,27.63
2018-07-10T10:53:55.939Z,29.27
2018-07-10T10:56:30.137Z,28.42
2018-07-10T10:59:03.744Z,27.64
2018-07-10T11:01:36.621Z,28.04
2018-07-10T11:04:07.700Z,28.24
2018-07-10T11:06:41.071Z,27.63
2018-07-10T11:09:14.689Z,27.57
2018-07-10T11:11:47.609Z,28.10
2018-07-10T11:14:19.101Z,28.43
2018-07-10T11:16:52.421Z,28.89
2018-07-10T11:19:41.360Z,28.41
2018-07-10T11:22:18.843Z,27.24
2018-07-10T11:25:13.924Z,27.47
2018-07-10T11:28:08.475Z,27.28
2018-07-10T11:30:41.216Z,28.37
2018-07-10T11:33:13.011Z,27.72
2018-07-10T11:35:46.214Z,29.85
2018-07-10T11:38:17.720Z,28.98
2018-07-10T11:40:51.997Z,28.18
2018-07-10T11:43:23.883Z,28.76
2018-07-10T11:45:56.410Z,26.87
2018-07-10T11:48:29.817Z,27.50
2018-07-10T11:51:03.087Z,29.48
2018-07-10T11:53:34.988Z,28.26
2018-07-10T11:56:23.283Z,29.59
2018-07-10T11:58:59.041Z,30.13
2018-07-10T12:01:33.656Z,29.16
2018-07-10T12:04:05.985Z,27.48
2018-07-10T12:06:52.205Z,27.70
2018-07-10T12:09:23.664Z,26.39
2018-07-10T12:11:57.625Z,28.45
2018-07-10T12:14:29.785Z,26.68
2018-07-10T12:17:01.674Z,29.08
2018-07-10T12:19:34.406Z,28.50
2018-07-10T12:22:10.304Z,28.20
2018-07-10T12:24:49.006Z,29.81
2018-07-10T12:27:25.583Z,28.73
2018-07-10T12:30:30.409Z,28.96
2018-07-10T12:36:06.837Z,28.45
2018-07-10T12:38:38.285Z,28.45
2018-07-10T12:41:11.537Z,28.45
2018-07-10T12:43:43.390Z,26.87
2018-07-10T12:46:14.567Z,26.29
2018-07-10T12:48:47.439Z,26.65
2018-07-10T12:51:19.724Z,27.43
2018-07-10T12:53:51.988Z,27.43
2018-07-10T12:56:23.588Z,27.56
2018-07-10T12:58:58.240Z,29.46
2018-07-10T13:01:30.282Z,29.04
2018-07-10T13:04:02.861Z,28.04
2018-07-10T13:06:34.465Z,26.55
2018-07-10T13:09:10.567Z,28.04
2018-07-10T13:11:42.689Z,30.71
2018-07-10T13:14:14.449Z,30.41
2018-07-10T13:16:46.378Z,31.14
2018-07-10T13:19:19.442Z,29.73
2018-07-10T13:21:54.199Z,27.96
2018-07-10T13:24:25.909Z,28.93
2018-07-10T13:26:58.257Z,28.16
2018-07-10T13:29:30.082Z,28.69
2018-07-10T13:32:02.184Z,28.59
2018-07-10T13:34:33.770Z,28.27
2018-07-10T13:37:06.111Z,28.38
2018-07-10T13:39:37.789Z,29.40
2018-07-10T13:42:08.911Z,30.78
2018-07-10T13:44:40.369Z,28.77
2018-07-10T13:47:13.628Z,30.32
2018-07-10T13:50:39.000Z,30.30
2018-07-10T14:00:31.081Z,32.43
2018-07-10T14:03:02.452Z,33.42
2018-07-10T14:05:34.083Z,34.10
2018-07-10T14:08:05.451Z,34.02
2018-07-10T14:10:37.126Z,32.84
2018-07-10T14:13:08.737Z,34.70
2018-07-10T14:15:40.412Z,34.46
2018-07-10T14:18:12.200Z,35.66
2018-07-10T14:20:54.652Z,35.73
2018-07-10T14:23:26.600Z,35.98
2018-07-10T14:25:58.761Z,34.62
2018-07-10T14:28:30.619Z,35.04
2018-07-10T14:31:02.771Z,35.50
2018-07-10T19:54:27.956Z,43.75
2018-07-10T19:57:00.161Z,43.26
2018-07-10T19:59:31.863Z,43.38
2018-07-10T20:02:04.658Z,43.57
2018-07-10T20:05:12.822Z,42.66
2018-07-10T20:07:58.300Z,42.25
2018-07-10T20:10:39.753Z,41.30
2018-07-10T20:13:29.117Z,40.19
2018-07-10T20:16:10.204Z,40.22
2018-07-10T20:18:57.665Z,39.72
2018-07-10T20:21:44.754Z,39.39
2018-07-10T20:24:20.045Z,39.83
2018-07-10T20:27:36.170Z,40.71
2018-07-10T20:30:52.680Z,41.37
2018-07-10T20:35:36.514Z,42.74
2018-07-10T20:38:08.253Z,42.86
2018-07-10T20:40:42.832Z,43.48
2018-07-10T20:43:16.210Z,43.76
2018-07-10T20:45:52.772Z,43.05
2018-07-10T20:48:44.249Z,42.72
2018-07-10T20:51:16.382Z,43.10
2018-07-10T20:54:14.894Z,42.34
2018-07-10T20:57:13.755Z,42.16
2018-07-10T20:59:48.708Z,42.42
2018-07-10T21:02:35.973Z,42.84
2018-07-10T21:05:14.840Z,42.49
2018-07-10T21:08:00.043Z,42.80
2018-07-10T21:10:50.761Z,43.07
2018-07-10T21:18:03.074Z,44.33
2018-07-10T21:23:28.253Z,43.92
2018-07-10T21:26:06.596Z,45.64
2018-07-10T21:29:01.414Z,45.60
2018-07-10T21:31:47.488Z,45.60
2018-07-10T21:34:54.280Z,46.05
2018-07-10T21:38:06.412Z,44.00
2018-07-10T21:41:01.124Z,48.42
2018-07-10T21:43:52.189Z,49.48
2018-07-10T21:46:40.837Z,49.27
2018-07-10T21:49:30.302Z,50.65
2018-07-10T21:52:01.782Z,50.28
2018-07-10T21:54:33.290Z,50.35
2018-07-10T21:57:05.012Z,50.84
2018-07-10T21:59:40.871Z,50.88
2018-07-10T22:02:12.816Z,50.28
2018-07-10T22:04:45.261Z,49.79
2018-07-10T22:07:19.950Z,51.16
2018-07-10T22:09:53.360Z,50.21
2018-07-10T22:15:55.705Z,51.24
2018-07-10T22:18:27.344Z,51.09
2018-07-10T22:20:59.178Z,50.21
2018-07-10T22:23:35.673Z,50.54
2018-07-10T22:26:28.240Z,50.63
2018-07-10T22:29:30.501Z,50.66
2018-07-10T22:32:07.170Z,50.52
2018-07-10T22:34:45.130Z,51.01
2018-07-10T22:37:19.533Z,50.91
2018-07-10T22:39:51.204Z,51.04
2018-07-10T22:42:22.802Z,50.94
2018-07-10T22:45:15.299Z,50.14
2018-07-10T22:47:47.237Z,50.82
2018-07-10T22:50:24.398Z,50.42
2018-07-10T22:53:01.722Z,51.31
2018-07-10T22:55:33.632Z,51.21
2018-07-10T22:58:10.921Z,50.92
2018-07-10T23:00:42.053Z,51.05
2018-07-10T23:03:26.803Z,51.69
2018-07-10T23:05:58.030Z,52.27
2018-07-10T23:08:34.787Z,52.65
2018-07-10T23:11:07.111Z,53.28
2018-07-10T23:13:42.528Z,53.79
2018-07-10T23:16:14.379Z,53.25
2018-07-10T23:18:47.175Z,53.75
2018-07-10T23:21:19.641Z,53.88
2018-07-10T23:23:50.950Z,54.02
2018-07-10T23:26:22.410Z,54.20
2018-07-10T23:28:55.043Z,54.76
2018-07-10T23:31:31.188Z,54.42
2018-07-10T23:34:19.414Z,55.76
2018-07-10T23:36:57.138Z,56.06
2018-07-10T23:40:06.035Z,55.59
2018-07-10T23:42:37.179Z,55.55
2018-07-10T23:45:19.326Z,56.45
2018-07-10T23:47:55.167Z,57.13
2018-07-10T23:50:31.447Z,57.81
2018-07-10T23:53:29.886Z,57.42
2018-07-10T23:56:00.913Z,57.50
2018-07-10T23:58:32.561Z,57.76
